Scammon, Kansas
Current Conditions -  °F | °C
As of 9:55 AM on Friday 21 Nov 2014 (Local Time) from KPTS Reporting Station
Overcast Overcast  
Wind Chill: 41°   Ceiling: 1100
Heat Index: 45°   Visibility: 7mi
Dew Point: 40°   Wind: 7mph
Humidity: 81%   Direction: 140°SE
Pressure: 30.17"   Gusts: NA
Location:  37.28°N, 94.82°W
Report Text: KPTS 211555Z AUTO 14006KT 7SM OVC011 07/04 A3017 RMK AO2 T00730042
Loading
Personal Weather Stations






























Interactive Weather Map New forecast layout! Learn more

10-Day Weather Forecast

Advertisements
Track Severe Weather on mobile